createdAt,value
2023-05-02T00:00:45.462Z,96612.47
2023-05-02T00:03:14.500Z,96589.75
2023-05-02T00:05:43.090Z,96612.38
2023-05-02T00:08:18.129Z,96550.44
2023-05-02T00:10:47.151Z,96567.00
2023-05-02T00:13:15.687Z,96634.63
2023-05-02T00:15:45.300Z,96555.53
2023-05-02T00:18:13.529Z,96547.13
2023-05-02T00:20:42.412Z,96588.22
2023-05-02T00:23:12.171Z,96548.09
2023-05-02T00:25:46.603Z,96595.34
2023-05-02T00:28:15.298Z,96593.56
2023-05-02T00:30:48.664Z,96577.75
2023-05-02T00:33:16.887Z,96533.41
2023-05-02T00:35:45.137Z,96540.56
2023-05-02T00:38:13.321Z,96555.72
2023-05-02T00:40:46.306Z,96552.34
2023-05-02T00:43:14.628Z,96575.16
2023-05-02T00:45:46.167Z,96569.47
2023-05-02T00:48:17.888Z,96547.91
2023-05-02T00:50:46.159Z,96625.09
2023-05-02T00:53:14.355Z,96578.41
2023-05-02T00:55:43.128Z,96562.84
2023-05-02T00:58:14.169Z,96603.06
2023-05-02T01:00:59.053Z,96554.44
2023-05-02T01:03:40.201Z,96629.50
2023-05-02T01:06:24.076Z,96586.66
2023-05-02T01:09:03.949Z,96574.13
2023-05-02T01:11:49.964Z,96605.00
2023-05-02T01:14:20.439Z,96622.38
2023-05-02T01:16:49.835Z,96624.00
2023-05-02T01:19:30.695Z,96585.63
2023-05-02T01:22:02.248Z,96560.84
2023-05-02T01:24:38.387Z,96576.28
2023-05-02T01:27:17.226Z,96609.84
2023-05-02T01:29:48.268Z,96608.88
2023-05-02T01:32:17.389Z,96566.63
2023-05-02T01:34:48.962Z,96631.47
2023-05-02T01:37:19.783Z,96591.25
2023-05-02T01:39:49.714Z,96608.31
2023-05-02T01:42:19.312Z,96592.59
2023-05-02T01:44:50.589Z,96618.78
2023-05-02T01:47:20.198Z,96665.19
2023-05-02T01:49:48.856Z,96585.72
2023-05-02T01:52:17.936Z,96612.84
2023-05-02T01:54:46.464Z,96632.00
2023-05-02T01:57:16.663Z,96608.31
2023-05-02T01:59:46.219Z,96622.91
2023-05-02T02:02:17.010Z,96667.00
2023-05-02T02:04:48.675Z,96562.41
2023-05-02T02:07:17.617Z,96605.63
2023-05-02T02:09:45.860Z,96636.47
2023-05-02T02:12:24.707Z,96520.06
2023-05-02T02:15:01.267Z,96619.38
2023-05-02T02:17:38.724Z,96614.69
2023-05-02T02:20:11.607Z,96598.19
2023-05-02T02:22:42.342Z,96671.13
2023-05-02T02:25:15.746Z,96610.59
2023-05-02T02:27:44.419Z,96593.75
2023-05-02T02:30:13.577Z,96642.22
2023-05-02T02:32:43.279Z,96654.03
2023-05-02T02:35:12.359Z,96593.06
2023-05-02T02:37:51.648Z,96669.72
2023-05-02T02:40:31.584Z,96636.44
2023-05-02T02:43:12.779Z,96649.22
2023-05-02T02:45:56.564Z,96594.31
2023-05-02T02:48:34.318Z,96576.00
2023-05-02T02:51:12.835Z,96662.31
2023-05-02T02:53:59.495Z,96665.75
2023-05-02T02:56:34.392Z,96674.41
2023-05-02T02:59:15.927Z,96667.66
2023-05-02T03:01:50.269Z,96702.63
2023-05-02T03:04:22.040Z,96674.19
2023-05-02T03:06:51.291Z,96693.19
2023-05-02T03:09:19.609Z,96688.78
2023-05-02T03:11:50.013Z,96667.28
2023-05-02T03:14:19.230Z,96692.06
2023-05-02T03:16:47.806Z,96688.50
2023-05-02T03:19:17.608Z,96662.03
2023-05-02T03:21:47.254Z,96680.19
2023-05-02T03:24:20.038Z,96728.41
2023-05-02T03:26:49.530Z,96713.91
2023-05-02T03:29:23.472Z,96679.06
2023-05-02T03:31:51.865Z,96695.31
2023-05-02T03:34:22.248Z,96661.19
2023-05-02T03:36:53.543Z,96723.13
2023-05-02T03:39:22.454Z,96674.38
2023-05-02T03:41:50.869Z,96722.34
2023-05-02T03:44:22.029Z,96703.03
2023-05-02T03:46:50.256Z,96772.41
2023-05-02T03:49:19.685Z,96724.50
2023-05-02T03:51:49.618Z,96748.09
2023-05-02T03:54:25.258Z,96714.66
2023-05-02T03:56:55.620Z,96694.28
2023-05-02T03:59:29.505Z,96720.97
2023-05-02T04:01:58.309Z,96740.56
2023-05-02T04:04:43.518Z,96711.34
2023-05-02T04:07:19.338Z,96684.50
2023-05-02T04:09:53.124Z,96729.81
2023-05-02T04:12:32.170Z,96714.66
2023-05-02T04:15:00.587Z,96757.06
2023-05-02T04:17:30.989Z,96734.09
2023-05-02T04:20:00.045Z,96764.78
2023-05-02T04:22:31.551Z,96742.06
2023-05-02T04:25:06.437Z,96760.63
2023-05-02T04:27:36.659Z,96773.59
2023-05-02T04:30:06.182Z,96653.69
2023-05-02T04:32:34.979Z,96772.50
2023-05-02T04:35:06.176Z,96766.16
2023-05-02T04:37:34.657Z,96728.84
2023-05-02T04:40:04.703Z,96780.75
2023-05-02T04:42:33.246Z,96733.09
2023-05-02T04:45:18.069Z,96777.84
2023-05-02T04:47:47.459Z,96741.25
2023-05-02T04:50:16.072Z,96722.91
2023-05-02T04:52:44.266Z,96726.63
2023-05-02T04:55:13.875Z,96733.66
2023-05-02T04:57:42.257Z,96763.16
2023-05-02T05:00:15.513Z,96785.56
2023-05-02T05:02:44.302Z,96803.88
2023-05-02T05:05:14.876Z,96787.34
2023-05-02T05:07:43.150Z,96800.84
2023-05-02T05:10:13.459Z,96788.75
2023-05-02T05:12:46.236Z,96808.84
2023-05-02T05:15:15.559Z,96779.38
2023-05-02T05:17:47.973Z,96798.38
2023-05-02T05:20:16.325Z,96773.91
2023-05-02T05:22:44.749Z,96768.94
2023-05-02T05:25:16.149Z,96723.72
2023-05-02T05:27:46.792Z,96778.84
2023-05-02T05:30:16.126Z,96794.81
2023-05-02T05:32:45.106Z,96851.72
2023-05-02T05:35:13.588Z,96814.66
2023-05-02T05:37:43.657Z,96830.09
2023-05-02T05:40:16.906Z,96812.69
2023-05-02T05:42:49.347Z,96817.38
2023-05-02T05:45:24.411Z,96815.47
2023-05-02T05:47:52.633Z,96805.09
2023-05-02T05:50:21.018Z,96799.84
2023-05-02T05:52:49.488Z,96845.44
2023-05-02T05:55:19.367Z,96851.63
2023-05-02T05:57:48.153Z,96798.19
2023-05-02T06:00:17.383Z,96803.13
2023-05-02T06:02:49.110Z,96822.03
2023-05-02T06:08:29.545Z,96830.97
2023-05-02T06:10:59.130Z,96842.78
2023-05-02T06:13:27.659Z,96857.13
2023-05-02T06:15:56.622Z,96820.09
2023-05-02T06:18:25.499Z,96875.84
2023-05-02T06:20:53.688Z,96844.88
2023-05-02T06:23:21.917Z,96838.56
2023-05-02T06:25:50.163Z,96884.34
2023-05-02T06:28:19.691Z,96870.78
2023-05-02T06:30:47.893Z,96858.09
2023-05-02T06:33:16.228Z,96895.09
2023-05-02T06:35:44.423Z,96860.19
2023-05-02T06:38:12.691Z,96850.97
2023-05-02T06:40:45.240Z,96872.50
2023-05-02T06:43:13.749Z,96869.00
2023-05-02T06:45:43.443Z,96863.00
2023-05-02T06:48:12.077Z,96896.63
2023-05-02T06:50:40.424Z,96907.44
2023-05-02T06:53:08.622Z,96902.78
2023-05-02T06:55:36.919Z,96914.72
2023-05-02T06:58:05.166Z,96906.63
2023-05-02T07:00:33.465Z,96867.50
2023-05-02T07:03:03.139Z,96880.84
2023-05-02T07:05:31.587Z,96920.16
2023-05-02T07:07:59.805Z,96916.22
2023-05-02T07:10:28.155Z,96897.75
2023-05-02T07:12:56.326Z,96929.09
2023-05-02T07:15:24.600Z,96909.31
2023-05-02T07:17:52.878Z,96933.19
2023-05-02T07:20:22.609Z,96945.31
2023-05-02T07:22:51.486Z,96945.53
2023-05-02T07:25:20.153Z,96927.88
2023-05-02T07:27:48.421Z,96906.91
2023-05-02T07:30:16.634Z,96962.88
2023-05-02T07:32:45.091Z,96917.19
2023-05-02T07:35:13.322Z,96921.06
2023-05-02T07:37:42.901Z,96948.13
2023-05-02T07:40:11.890Z,96927.00
2023-05-02T07:42:41.149Z,96900.84
2023-05-02T07:45:10.546Z,96946.41
2023-05-02T07:47:39.005Z,96925.56
2023-05-02T07:50:09.132Z,96990.72
2023-05-02T07:52:37.361Z,96897.31
2023-05-02T07:55:08.435Z,97064.94
2023-05-02T07:57:36.630Z,96925.94
2023-05-02T08:00:10.301Z,96926.56
2023-05-02T08:02:45.425Z,96967.88
2023-05-02T08:05:15.438Z,96947.91
2023-05-02T08:07:44.049Z,96904.00
2023-05-02T08:10:18.734Z,96960.97
2023-05-02T08:12:47.275Z,96898.94
2023-05-02T08:15:15.590Z,96983.28
2023-05-02T08:17:43.917Z,96949.75
2023-05-02T08:20:12.977Z,96972.63
2023-05-02T08:22:41.261Z,96989.09
2023-05-02T08:25:10.291Z,96986.53
2023-05-02T08:27:39.856Z,96916.41
2023-05-02T08:30:09.655Z,96997.63
2023-05-02T08:32:38.285Z,96956.47
2023-05-02T08:35:08.024Z,96914.50
2023-05-02T08:37:36.413Z,96938.25
2023-05-02T08:40:05.578Z,96961.50
2023-05-02T08:42:34.895Z,96966.31
2023-05-02T08:45:06.174Z,96962.03
2023-05-02T08:47:34.483Z,96989.41
2023-05-02T08:50:04.533Z,96981.47
2023-05-02T08:52:34.133Z,96988.84
2023-05-02T08:55:03.704Z,96982.34
2023-05-02T08:57:32.182Z,96944.63
2023-05-02T09:00:00.588Z,97000.34
2023-05-02T09:02:49.868Z,96944.97
2023-05-02T09:05:25.102Z,96975.66
2023-05-02T09:07:53.438Z,96986.31
2023-05-02T09:10:23.229Z,96969.09
2023-05-02T09:12:51.508Z,97018.66
2023-05-02T09:15:21.604Z,96985.63
2023-05-02T09:17:51.225Z,96958.59
2023-05-02T09:20:19.435Z,96988.31
2023-05-02T09:22:52.152Z,96966.06
2023-05-02T09:25:21.518Z,97004.59
2023-05-02T09:27:54.822Z,96986.44
2023-05-02T09:30:25.671Z,97005.50
2023-05-02T09:32:56.246Z,96969.19
2023-05-02T09:35:24.957Z,96956.53
2023-05-02T09:37:54.907Z,97010.03
2023-05-02T09:40:24.413Z,96982.44
2023-05-02T09:42:53.890Z,97016.84
2023-05-02T09:45:24.143Z,97040.75
2023-05-02T09:47:54.607Z,96959.06
2023-05-02T09:50:37.709Z,97012.03
2023-05-02T09:53:08.348Z,96990.94
2023-05-02T09:55:36.743Z,96996.31
2023-05-02T09:58:06.600Z,97030.56
2023-05-02T10:00:42.905Z,97002.06
2023-05-02T10:06:10.759Z,97003.97
2023-05-02T10:08:40.824Z,96912.06
2023-05-02T10:11:18.677Z,96947.06
2023-05-02T10:13:48.098Z,96977.06
2023-05-02T10:16:24.821Z,96961.94
2023-05-02T10:19:10.917Z,97003.03
2023-05-02T10:21:44.336Z,97009.88
2023-05-02T10:24:13.736Z,96946.66
2023-05-02T10:26:42.013Z,97011.50
2023-05-02T10:29:10.439Z,96981.25
2023-05-02T10:31:41.875Z,96967.63
2023-05-02T10:34:13.482Z,96978.09
2023-05-02T10:36:41.933Z,97000.69
2023-05-02T10:39:10.617Z,96966.91
2023-05-02T10:41:40.853Z,96976.66
2023-05-02T10:44:09.100Z,96934.06
2023-05-02T10:46:40.542Z,97006.44
2023-05-02T10:49:10.622Z,96961.16
2023-05-02T10:51:42.246Z,96984.78
2023-05-02T10:54:24.273Z,96978.06
2023-05-02T10:57:08.435Z,97002.59
2023-05-02T10:59:42.531Z,96969.06
2023-05-02T11:02:50.253Z,96979.75
2023-05-02T11:05:19.005Z,96968.44
2023-05-02T11:07:48.544Z,96970.28
2023-05-02T11:10:29.224Z,96958.56
2023-05-02T11:13:01.174Z,96977.94
2023-05-02T11:16:00.388Z,96979.50
2023-05-02T11:18:28.624Z,96976.97
2023-05-02T11:21:29.771Z,96936.84
2023-05-02T11:24:40.462Z,96915.31
2023-05-02T11:27:39.455Z,96888.09
2023-05-02T11:30:09.777Z,96971.16
2023-05-02T11:33:16.007Z,96928.66
2023-05-02T11:35:46.697Z,96958.06
2023-05-02T11:38:17.846Z,96943.53
2023-05-02T11:41:08.045Z,96957.59
2023-05-02T11:43:36.354Z,96978.91
2023-05-02T11:46:05.988Z,96945.13
2023-05-02T11:48:34.431Z,96928.59
2023-05-02T11:51:07.263Z,96927.34
2023-05-02T11:53:41.470Z,96948.91
2023-05-02T11:56:11.128Z,96922.88
2023-05-02T11:58:39.334Z,96914.78
2023-05-02T12:01:14.403Z,96820.81
2023-05-02T12:03:52.518Z,96957.09
2023-05-02T12:06:21.232Z,96913.09
2023-05-02T12:08:55.665Z,96949.75
2023-05-02T12:11:27.162Z,96815.31
2023-05-02T12:13:58.737Z,96956.78
2023-05-02T12:16:27.147Z,96935.78
2023-05-02T12:18:58.064Z,96984.53
2023-05-02T12:21:26.945Z,96963.66
2023-05-02T12:23:55.493Z,97006.00
2023-05-02T12:26:29.492Z,96984.78
2023-05-02T12:28:58.344Z,97014.31
2023-05-02T12:31:28.993Z,97023.16
2023-05-02T12:33:59.434Z,97012.78
2023-05-02T12:36:29.424Z,96966.72
2023-05-02T12:39:00.311Z,96996.38
2023-05-02T12:41:35.794Z,96979.38
2023-05-02T12:44:05.247Z,96909.78
2023-05-02T12:46:33.528Z,96995.44
2023-05-02T12:49:08.268Z,96996.38
2023-05-02T12:51:37.017Z,96876.44
2023-05-02T12:54:06.715Z,96965.38
2023-05-02T12:56:43.580Z,96976.50
2023-05-02T12:59:27.841Z,96979.56
2023-05-02T13:01:56.242Z,96987.59
2023-05-02T13:04:35.710Z,96977.00
2023-05-02T13:07:04.354Z,96982.81
2023-05-02T13:09:32.509Z,96907.94
2023-05-02T13:12:03.769Z,97005.22
2023-05-02T13:14:32.120Z,96910.44
2023-05-02T13:17:00.425Z,96973.28
2023-05-02T13:19:31.319Z,96989.38
2023-05-02T13:21:59.721Z,96998.09
2023-05-02T13:24:28.468Z,97030.69
2023-05-02T13:26:56.646Z,97042.34
2023-05-02T13:29:26.199Z,96993.53
2023-05-02T13:31:54.366Z,97002.66
2023-05-02T13:34:22.965Z,96965.16
2023-05-02T13:36:51.123Z,97090.59
2023-05-02T13:39:19.730Z,97009.44
2023-05-02T13:41:47.926Z,96954.34
2023-05-02T13:44:16.156Z,96963.50
2023-05-02T13:46:45.761Z,96979.91
2023-05-02T13:49:13.991Z,96825.94
2023-05-02T13:51:42.200Z,97022.16
2023-05-02T13:54:10.603Z,96943.16
2023-05-02T13:56:39.828Z,96998.38
2023-05-02T13:59:09.622Z,96924.56
2023-05-02T14:01:40.463Z,96922.50
2023-05-02T14:04:34.446Z,96972.25
2023-05-02T14:07:26.406Z,96978.47
2023-05-02T14:09:55.398Z,96997.44
2023-05-02T14:12:23.845Z,96991.22
2023-05-02T14:14:52.075Z,96992.22
2023-05-02T14:17:20.254Z,96989.31
2023-05-02T14:19:49.750Z,97007.59
2023-05-02T14:22:18.338Z,96986.41
2023-05-02T14:24:46.682Z,97007.66
2023-05-02T14:27:18.316Z,96998.41
2023-05-02T14:29:46.912Z,96994.75
2023-05-02T14:32:15.421Z,97018.19
2023-05-02T14:34:43.611Z,97008.03
2023-05-02T14:37:13.149Z,96977.19
2023-05-02T14:39:42.556Z,97010.66
2023-05-02T14:42:10.767Z,96928.25
2023-05-02T14:44:38.940Z,97027.44
2023-05-02T14:47:07.192Z,96969.56
2023-05-02T14:49:35.428Z,96953.41
2023-05-02T14:52:03.624Z,96955.97
2023-05-02T14:54:33.191Z,96990.31
2023-05-02T14:57:02.229Z,97031.94
2023-05-02T14:59:31.045Z,96986.22
2023-05-02T15:01:59.413Z,96937.53
2023-05-02T15:04:28.314Z,97005.69
2023-05-02T15:06:58.333Z,97004.88
2023-05-02T15:09:27.021Z,96984.34
2023-05-02T15:11:56.797Z,96993.38
2023-05-02T15:14:25.032Z,96958.41
2023-05-02T15:16:53.445Z,97004.59
2023-05-02T15:19:22.579Z,97006.31
2023-05-02T15:21:53.122Z,97013.31
2023-05-02T15:24:21.299Z,96978.72
2023-05-02T15:26:49.467Z,96960.38
2023-05-02T15:29:19.289Z,97050.16
2023-05-02T15:31:47.514Z,97016.72
2023-05-02T15:34:16.332Z,96960.97
2023-05-02T15:36:44.508Z,96975.09
2023-05-02T15:39:12.687Z,96956.81
2023-05-02T15:41:41.956Z,97012.25
2023-05-02T15:44:10.196Z,97023.34
2023-05-02T15:46:40.952Z,97033.88
2023-05-02T15:49:09.269Z,97013.03
2023-05-02T15:51:37.487Z,97059.22
2023-05-02T15:54:06.880Z,96901.19
2023-05-02T15:56:35.155Z,97001.06
2023-05-02T15:59:03.338Z,97013.28
2023-05-02T16:01:31.842Z,97007.44
2023-05-02T16:04:01.624Z,97071.75
2023-05-02T16:06:30.630Z,97029.03
2023-05-02T16:08:58.858Z,97039.41
2023-05-02T16:11:28.561Z,97025.47
2023-05-02T16:13:57.819Z,97052.31
2023-05-02T16:16:26.122Z,97025.84
2023-05-02T16:18:54.347Z,96999.88
2023-05-02T16:21:23.905Z,97048.59
2023-05-02T16:23:52.322Z,97036.84
2023-05-02T16:26:21.505Z,97058.75
2023-05-02T16:28:49.722Z,97016.50
2023-05-02T16:31:17.982Z,97039.16
2023-05-02T16:33:46.679Z,97049.56
2023-05-02T16:36:15.734Z,97015.94
2023-05-02T16:38:45.507Z,97006.06
2023-05-02T16:41:13.953Z,97040.94
2023-05-02T16:43:42.196Z,97060.13
2023-05-02T16:46:10.453Z,97002.94
2023-05-02T16:48:38.605Z,97032.72
2023-05-02T16:51:07.679Z,97026.34
2023-05-02T16:53:35.848Z,97010.38
2023-05-02T16:56:06.040Z,97026.97
2023-05-02T16:58:34.219Z,97017.88
2023-05-02T17:01:02.886Z,97042.09
2023-05-02T17:03:31.162Z,96891.16
2023-05-02T17:06:03.038Z,97021.28
2023-05-02T17:08:32.083Z,96983.53
2023-05-02T17:11:00.544Z,96980.75
2023-05-02T17:13:30.432Z,97074.94
2023-05-02T17:15:59.448Z,96983.13
2023-05-02T17:18:27.997Z,97092.09
2023-05-02T17:20:56.560Z,97084.75
2023-05-02T17:23:24.931Z,96970.66
2023-05-02T17:25:53.389Z,97045.91
2023-05-02T17:28:21.679Z,97025.19
2023-05-02T17:30:54.644Z,97037.16
2023-05-02T17:33:23.385Z,97377.25
2023-05-02T17:35:51.726Z,97072.84
2023-05-02T17:38:20.477Z,97073.88
2023-05-02T17:40:48.741Z,97075.53
2023-05-02T17:43:16.940Z,96984.44
2023-05-02T17:45:45.439Z,97014.16
2023-05-02T17:48:15.194Z,97076.78
2023-05-02T17:50:44.197Z,97064.91
2023-05-02T17:53:12.600Z,97048.31
2023-05-02T17:55:40.866Z,97052.31
2023-05-02T17:58:09.201Z,97069.47
2023-05-02T18:00:38.138Z,97084.78
2023-05-02T18:03:30.900Z,97038.78
2023-05-02T18:06:00.630Z,97161.38
2023-05-02T18:08:31.148Z,97092.78
2023-05-02T18:11:03.600Z,97121.59
2023-05-02T18:13:32.487Z,97135.47
2023-05-02T18:16:01.946Z,97103.25
2023-05-02T18:18:30.299Z,97086.41
2023-05-02T18:20:59.992Z,97146.97
2023-05-02T18:23:28.168Z,97146.69
2023-05-02T18:25:56.751Z,97084.75
2023-05-02T18:28:25.105Z,97124.66
2023-05-02T18:30:53.316Z,97155.97
2023-05-02T18:33:21.483Z,97136.50
2023-05-02T18:35:50.182Z,97176.97
2023-05-02T18:38:20.260Z,97130.53
2023-05-02T18:40:48.625Z,97164.50
2023-05-02T18:43:16.793Z,97161.50
2023-05-02T18:45:45.111Z,97161.72
2023-05-02T18:48:13.368Z,97184.66
2023-05-02T18:50:41.667Z,97159.03
2023-05-02T18:53:09.942Z,97151.09
2023-05-02T18:55:39.487Z,97181.69
2023-05-02T18:58:07.684Z,97196.47
2023-05-02T19:00:37.226Z,97141.41
2023-05-02T19:03:05.717Z,97161.78
2023-05-02T19:05:34.791Z,97209.97
2023-05-02T19:08:04.528Z,97201.03
2023-05-02T19:10:32.998Z,97181.41
2023-05-02T19:13:02.949Z,97206.88
2023-05-02T19:15:31.256Z,97176.63
2023-05-02T19:17:59.451Z,97222.78
2023-05-02T19:20:30.132Z,97164.41
2023-05-02T19:23:17.741Z,97180.16
2023-05-02T19:25:47.169Z,97198.84
2023-05-02T19:28:17.259Z,97202.31
2023-05-02T19:30:46.129Z,97228.63
2023-05-02T19:33:14.345Z,97206.16
2023-05-02T19:35:42.542Z,97211.13
2023-05-02T19:38:10.698Z,97225.97
2023-05-02T19:40:38.888Z,97251.09
2023-05-02T19:43:07.116Z,97218.34
2023-05-02T19:45:36.739Z,97191.94
2023-05-02T19:48:05.937Z,97204.09
2023-05-02T19:50:34.285Z,97239.28
2023-05-02T19:53:04.288Z,97205.44
2023-05-02T19:55:58.693Z,97185.97
2023-05-02T19:58:27.234Z,97218.09
2023-05-02T20:00:57.087Z,97182.78
2023-05-02T20:03:25.621Z,97275.75
2023-05-02T20:05:57.243Z,97263.88
2023-05-02T20:08:30.380Z,97183.16
2023-05-02T20:10:58.571Z,97243.72
2023-05-02T20:13:31.463Z,97257.16
2023-05-02T20:16:01.088Z,97227.00
2023-05-02T20:18:29.305Z,97209.06
2023-05-02T20:20:57.763Z,97253.00
2023-05-02T20:23:26.613Z,97242.09
2023-05-02T20:25:54.839Z,97249.06
2023-05-02T20:28:23.063Z,97280.97
2023-05-02T20:30:51.210Z,97245.38
2023-05-02T20:33:23.110Z,97232.94
2023-05-02T20:35:56.570Z,97285.34
2023-05-02T20:38:24.772Z,97264.38
2023-05-02T20:40:53.109Z,97256.97
2023-05-02T20:43:22.881Z,97254.28
2023-05-02T20:45:51.194Z,97268.13
2023-05-02T20:48:20.799Z,97266.31
2023-05-02T20:50:55.439Z,97271.09
2023-05-02T20:53:24.112Z,97296.13
2023-05-02T20:55:52.441Z,97260.28
2023-05-02T20:58:20.666Z,97269.53
2023-05-02T21:00:52.454Z,97229.22
2023-05-02T21:03:22.750Z,97288.94
2023-05-02T21:05:54.958Z,97283.50
2023-05-02T21:08:25.045Z,97298.31
2023-05-02T21:10:54.476Z,97290.78
2023-05-02T21:13:23.146Z,97297.56
2023-05-02T21:15:51.483Z,97285.75
2023-05-02T21:18:22.289Z,97297.34
2023-05-02T21:20:50.627Z,97254.94
2023-05-02T21:23:18.901Z,97264.56
2023-05-02T21:25:47.141Z,97294.41
2023-05-02T21:28:15.493Z,97300.91
2023-05-02T21:30:43.678Z,97331.41
2023-05-02T21:33:12.575Z,97238.03
2023-05-02T21:35:42.194Z,97257.53
2023-05-02T21:38:10.391Z,97291.50
2023-05-02T21:40:38.659Z,97312.47
2023-05-02T21:43:07.128Z,97281.19
2023-05-02T21:45:35.384Z,97198.94
2023-05-02T21:48:03.809Z,97261.59
2023-05-02T21:50:33.554Z,97320.19
2023-05-02T21:53:03.278Z,97288.13
2023-05-02T21:55:31.478Z,97330.81
2023-05-02T21:57:59.647Z,97311.19
2023-05-02T22:00:28.071Z,97303.03
2023-05-02T22:02:57.792Z,97339.53
2023-05-02T22:05:27.235Z,97321.06
2023-05-02T22:07:56.233Z,97321.78
2023-05-02T22:10:51.628Z,97321.13
2023-05-02T22:13:19.989Z,97275.50
2023-05-02T22:15:50.850Z,97305.69
2023-05-02T22:18:19.480Z,97323.13
2023-05-02T22:20:48.185Z,97269.44
2023-05-02T22:23:16.453Z,97369.25
2023-05-02T22:25:46.338Z,97312.03
2023-05-02T22:28:15.915Z,97309.84
2023-05-02T22:30:44.151Z,97327.03
2023-05-02T22:33:13.989Z,97291.94
2023-05-02T22:35:42.368Z,97334.53
2023-05-02T22:38:10.998Z,97282.13
2023-05-02T22:40:39.188Z,97331.22
2023-05-02T22:43:08.181Z,97335.94
2023-05-02T22:45:38.358Z,97345.34
2023-05-02T22:48:07.806Z,97314.09
2023-05-02T22:50:36.106Z,97347.28
2023-05-02T22:53:04.656Z,97331.78
2023-05-02T22:55:32.858Z,97289.97
2023-05-02T22:58:01.068Z,97314.63
2023-05-02T23:00:29.306Z,97345.22
2023-05-02T23:02:59.114Z,97310.72
2023-05-02T23:05:27.455Z,97344.63
2023-05-02T23:07:55.689Z,97326.50
2023-05-02T23:10:23.900Z,97307.13
2023-05-02T23:12:52.102Z,97310.72
2023-05-02T23:15:20.826Z,97335.34
2023-05-02T23:17:49.294Z,97337.31
2023-05-02T23:20:20.412Z,97268.97
2023-05-02T23:22:48.709Z,97331.38
2023-05-02T23:25:17.012Z,97280.03
2023-05-02T23:27:45.693Z,97320.59
2023-05-02T23:30:14.258Z,97364.19
2023-05-02T23:32:42.713Z,97300.00
2023-05-02T23:35:12.348Z,97342.88
2023-05-02T23:37:42.773Z,97295.41
2023-05-02T23:40:11.606Z,97339.28
2023-05-02T23:42:40.456Z,97325.44
2023-05-02T23:45:10.224Z,97346.19
2023-05-02T23:47:38.963Z,97343.28
2023-05-02T23:50:09.768Z,97324.59
2023-05-02T23:52:38.087Z,97293.94
2023-05-02T23:55:10.549Z,97352.00
2023-05-02T23:57:39.170Z,97357.53
